createdAt,value
2022-12-11T00:00:41.608Z,11.60
2022-12-11T00:03:45.064Z,10.83
2022-12-11T00:06:50.595Z,10.70
2022-12-11T00:09:53.998Z,10.90
2022-12-11T00:12:56.996Z,9.90
2022-12-11T00:16:00.815Z,10.30
2022-12-11T00:19:04.163Z,10.50
2022-12-11T00:22:09.179Z,10.57
2022-12-11T00:25:12.417Z,10.23
2022-12-11T00:28:18.089Z,10.47
2022-12-11T00:31:22.046Z,10.57
2022-12-11T00:34:25.160Z,10.00
2022-12-11T00:37:29.729Z,9.87
2022-12-11T00:40:35.209Z,9.57
2022-12-11T00:43:38.386Z,9.87
2022-12-11T00:46:41.506Z,9.43
2022-12-11T00:49:49.573Z,9.40
2022-12-11T00:52:54.416Z,9.80
2022-12-11T00:55:57.409Z,10.30
2022-12-11T00:59:00.473Z,9.13
2022-12-11T01:02:03.529Z,9.40
2022-12-11T01:05:07.683Z,9.50
2022-12-11T01:08:12.363Z,9.57
2022-12-11T01:11:17.843Z,9.50
2022-12-11T01:14:21.052Z,9.70
2022-12-11T01:17:24.173Z,9.20
2022-12-11T01:20:28.742Z,9.90
2022-12-11T01:23:33.341Z,8.80
2022-12-11T01:26:36.341Z,8.97
2022-12-11T01:29:39.413Z,8.30
2022-12-11T01:32:42.508Z,9.00
2022-12-11T01:35:45.457Z,8.10
2022-12-11T01:38:50.653Z,9.60
2022-12-11T01:41:58.410Z,8.63
2022-12-11T01:45:33.338Z,8.27
2022-12-11T01:48:41.928Z,8.40
2022-12-11T01:51:50.440Z,8.20
2022-12-11T01:54:54.876Z,8.10
2022-12-11T01:57:57.913Z,8.87
2022-12-11T02:01:02.494Z,9.00
2022-12-11T02:04:07.892Z,8.67
2022-12-11T02:07:11.121Z,7.70
2022-12-11T02:10:16.283Z,7.40
2022-12-11T02:13:28.095Z,8.17
2022-12-11T02:16:42.967Z,7.93
2022-12-11T02:19:53.841Z,8.07
2022-12-11T02:23:20.492Z,8.07
2022-12-11T02:26:51.062Z,7.57
2022-12-11T02:30:01.684Z,8.10
2022-12-11T02:33:04.924Z,7.23
2022-12-11T02:36:10.900Z,7.20
2022-12-11T02:39:17.100Z,7.00
2022-12-11T02:42:21.695Z,8.20
2022-12-11T02:45:28.557Z,7.90
2022-12-11T02:48:33.456Z,6.57
2022-12-11T02:51:40.345Z,8.80
2022-12-11T02:54:45.899Z,6.97
2022-12-11T02:57:53.062Z,7.07
2022-12-11T03:00:57.783Z,7.17
2022-12-11T03:04:00.921Z,6.43
2022-12-11T03:07:12.440Z,7.30
2022-12-11T03:10:18.981Z,6.83
2022-12-11T03:13:24.156Z,6.60
2022-12-11T03:16:35.825Z,6.20
2022-12-11T03:19:42.772Z,6.63
2022-12-11T03:22:52.214Z,5.87
2022-12-11T03:25:58.215Z,6.30
2022-12-11T03:29:05.936Z,6.47
2022-12-11T03:32:14.553Z,6.87
2022-12-11T03:35:22.073Z,6.77
2022-12-11T03:38:29.382Z,7.03
2022-12-11T03:41:34.786Z,6.47
2022-12-11T03:44:38.170Z,6.10
2022-12-11T03:47:44.559Z,7.00
2022-12-11T03:50:49.696Z,7.00
2022-12-11T03:53:54.400Z,6.27
2022-12-11T03:57:00.454Z,5.60
2022-12-11T04:00:05.173Z,6.40
2022-12-11T04:03:16.520Z,6.40
2022-12-11T04:06:19.560Z,6.03
2022-12-11T04:09:22.672Z,6.50
2022-12-11T04:12:25.759Z,6.33
2022-12-11T04:15:28.782Z,6.53
2022-12-11T04:18:52.976Z,6.80
2022-12-11T04:22:13.390Z,6.93
2022-12-11T04:25:16.448Z,6.73
2022-12-11T04:28:19.523Z,5.83
2022-12-11T04:31:23.936Z,7.33
2022-12-11T04:34:28.358Z,7.27
2022-12-11T04:37:31.603Z,7.23
2022-12-11T04:40:34.627Z,7.27
2022-12-11T04:43:38.004Z,8.13
2022-12-11T04:46:41.086Z,7.03
2022-12-11T04:49:45.566Z,7.23
2022-12-11T04:52:48.574Z,7.20
2022-12-11T04:55:51.929Z,7.60
2022-12-11T04:58:54.978Z,7.87
2022-12-11T05:01:58.013Z,7.60
2022-12-11T05:05:03.316Z,8.23
2022-12-11T05:08:06.866Z,8.13
2022-12-11T05:11:11.991Z,8.80
2022-12-11T05:14:15.228Z,7.60
2022-12-11T05:17:18.262Z,7.70
2022-12-11T05:20:22.673Z,8.20
2022-12-11T05:23:25.823Z,8.27
2022-12-11T05:26:28.838Z,8.90
2022-12-11T05:29:31.888Z,8.70
2022-12-11T05:32:34.957Z,8.20
2022-12-11T05:35:39.340Z,8.97
2022-12-11T05:38:42.300Z,8.70
2022-12-11T05:41:45.414Z,8.87
2022-12-11T05:44:50.455Z,8.80
2022-12-11T05:47:53.492Z,9.10
2022-12-11T05:51:01.926Z,8.43
2022-12-11T05:54:05.304Z,9.07
2022-12-11T05:57:08.396Z,8.67
2022-12-11T06:00:13.958Z,8.80
2022-12-11T06:03:17.143Z,9.07
2022-12-11T06:06:21.727Z,8.27
2022-12-11T06:09:24.758Z,8.53
2022-12-11T06:12:28.492Z,9.83
2022-12-11T06:15:31.552Z,9.20
2022-12-11T06:18:37.562Z,9.20
2022-12-11T06:21:42.191Z,9.50
2022-12-11T06:24:45.268Z,9.03
2022-12-11T06:27:48.332Z,8.37
2022-12-11T06:30:51.300Z,8.77
2022-12-11T06:33:54.338Z,8.50
2022-12-11T06:36:58.903Z,8.50
2022-12-11T06:40:01.903Z,8.10
2022-12-11T06:43:04.916Z,8.47
2022-12-11T06:46:09.079Z,8.90
2022-12-11T06:49:12.093Z,8.37
2022-12-11T06:52:18.597Z,8.47
2022-12-11T06:55:22.052Z,7.60
2022-12-11T06:58:25.134Z,8.37
2022-12-11T07:01:29.433Z,8.53
2022-12-11T07:04:32.806Z,12.70
2022-12-11T07:07:37.253Z,19.37
2022-12-11T07:10:40.544Z,17.73
2022-12-11T07:13:44.008Z,21.23
2022-12-11T07:16:47.064Z,22.57
2022-12-11T07:19:50.127Z,20.20
2022-12-11T07:22:55.408Z,19.70
2022-12-11T07:26:01.458Z,19.20
2022-12-11T07:29:09.856Z,17.83
2022-12-11T07:32:49.752Z,18.37
2022-12-11T07:36:34.258Z,17.33
2022-12-11T07:39:51.537Z,15.50
2022-12-11T07:43:07.318Z,15.47
2022-12-11T07:46:40.645Z,16.50
2022-12-11T07:49:43.763Z,13.37
2022-12-11T07:52:46.867Z,13.40
2022-12-11T07:55:51.371Z,12.47
2022-12-11T07:58:54.457Z,12.10
2022-12-11T08:01:57.483Z,10.10
2022-12-11T08:05:00.532Z,10.60
2022-12-11T08:08:03.579Z,8.50
2022-12-11T08:11:20.997Z,8.40
2022-12-11T08:14:24.052Z,8.07
2022-12-11T08:17:30.258Z,7.30
2022-12-11T08:20:35.905Z,8.23
2022-12-11T08:23:39.294Z,7.17
2022-12-11T08:26:43.781Z,7.27
2022-12-11T08:29:47.554Z,6.30
2022-12-11T08:32:50.553Z,7.77
2022-12-11T08:35:53.569Z,8.23
2022-12-11T08:38:57.492Z,6.70
2022-12-11T08:42:01.949Z,7.03
2022-12-11T08:45:05.486Z,7.37
2022-12-11T08:48:08.579Z,7.83
2022-12-11T08:51:14.880Z,7.37
2022-12-11T08:54:17.939Z,7.40
2022-12-11T08:57:24.051Z,10.93
2022-12-11T09:00:27.051Z,11.60
2022-12-11T09:03:30.061Z,14.87
2022-12-11T09:06:34.585Z,17.90
2022-12-11T09:09:37.631Z,20.40
2022-12-11T09:12:42.823Z,24.23
2022-12-11T09:15:45.871Z,40.23
2022-12-11T09:18:50.913Z,53.13
2022-12-11T09:21:53.903Z,65.67
2022-12-11T09:24:56.913Z,67.13
2022-12-11T09:28:01.577Z,85.10
2022-12-11T09:31:10.345Z,94.27
2022-12-11T09:34:14.958Z,98.70
2022-12-11T09:37:18.065Z,90.13
2022-12-11T09:40:22.166Z,90.20
2022-12-11T09:43:42.290Z,82.13
2022-12-11T09:46:46.299Z,83.87
2022-12-11T09:49:52.411Z,78.10
2022-12-11T09:53:05.489Z,79.17
2022-12-11T09:56:17.684Z,73.20
2022-12-11T09:59:32.609Z,72.23
2022-12-11T10:02:50.151Z,70.97
2022-12-11T10:06:04.446Z,68.50
2022-12-11T10:09:19.072Z,67.50
2022-12-11T10:12:38.249Z,66.27
2022-12-11T10:15:50.671Z,63.87
2022-12-11T10:18:54.409Z,67.40
2022-12-11T10:21:58.432Z,65.57
2022-12-11T10:25:12.351Z,67.93
2022-12-11T10:28:17.329Z,60.63
2022-12-11T10:31:28.672Z,58.70
2022-12-11T10:34:36.202Z,61.27
2022-12-11T10:37:41.088Z,59.27
2022-12-11T10:40:46.763Z,57.73
2022-12-11T10:43:51.743Z,54.17
2022-12-11T10:47:07.342Z,55.80
2022-12-11T10:50:25.052Z,53.20
2022-12-11T10:53:29.187Z,56.17
2022-12-11T10:56:35.340Z,55.43
2022-12-11T10:59:42.296Z,54.60
2022-12-11T11:02:47.306Z,55.80
2022-12-11T11:05:51.276Z,55.63
2022-12-11T11:08:55.849Z,55.57
2022-12-11T11:12:01.908Z,56.43
2022-12-11T11:15:13.788Z,55.40
2022-12-11T11:18:27.134Z,55.87
2022-12-11T11:21:31.851Z,56.40
2022-12-11T11:24:39.685Z,57.60
2022-12-11T11:27:46.510Z,55.90
2022-12-11T11:31:00.372Z,56.33
2022-12-11T11:34:10.602Z,56.77
2022-12-11T11:37:26.184Z,55.10
2022-12-11T11:40:31.884Z,54.53
2022-12-11T11:43:41.309Z,53.37
2022-12-11T11:46:50.448Z,53.07
2022-12-11T11:50:03.319Z,47.83
2022-12-11T11:53:11.700Z,36.30
2022-12-11T11:56:21.431Z,35.03
2022-12-11T11:59:29.248Z,33.67
2022-12-11T12:02:32.362Z,32.90
2022-12-11T12:05:45.561Z,31.70
2022-12-11T12:08:59.575Z,31.37
2022-12-11T12:12:22.821Z,30.10
2022-12-11T12:15:36.979Z,27.73
2022-12-11T12:18:52.585Z,27.97
2022-12-11T12:21:58.503Z,27.30
2022-12-11T12:25:16.229Z,27.67
2022-12-11T12:28:28.983Z,26.17
2022-12-11T12:31:45.884Z,28.20
2022-12-11T12:35:06.411Z,26.03
2022-12-11T12:38:18.551Z,27.03
2022-12-11T12:41:26.011Z,27.53
2022-12-11T12:44:38.470Z,27.70
2022-12-11T12:47:46.646Z,29.60
2022-12-11T12:50:52.437Z,30.27
2022-12-11T12:54:00.467Z,27.93
2022-12-11T12:57:05.386Z,26.23
2022-12-11T13:00:13.076Z,28.27
2022-12-11T13:03:20.387Z,25.53
2022-12-11T13:06:32.095Z,25.97
2022-12-11T13:09:36.997Z,24.40
2022-12-11T13:12:45.729Z,24.50
2022-12-11T13:15:48.771Z,23.83
2022-12-11T13:18:52.176Z,23.53
2022-12-11T13:21:59.912Z,24.00
2022-12-11T13:25:22.159Z,22.50
2022-12-11T13:28:28.757Z,22.57
2022-12-11T13:31:36.632Z,21.00
2022-12-11T13:34:42.064Z,21.43
2022-12-11T13:37:46.040Z,20.87
2022-12-11T13:40:54.567Z,20.80
2022-12-11T13:43:59.416Z,20.10
2022-12-11T13:47:04.849Z,19.33
2022-12-11T13:50:17.831Z,18.70
2022-12-11T13:53:22.541Z,18.07
2022-12-11T13:56:26.960Z,19.27
2022-12-11T13:59:33.799Z,18.30
2022-12-11T14:02:42.589Z,18.53
2022-12-11T14:05:45.803Z,16.60
2022-12-11T14:08:54.482Z,18.33
2022-12-11T14:11:59.409Z,18.00
2022-12-11T14:15:04.617Z,16.43
2022-12-11T14:18:07.847Z,15.90
2022-12-11T14:21:21.529Z,17.00
2022-12-11T14:24:24.781Z,15.60
2022-12-11T14:27:29.450Z,14.77
2022-12-11T14:30:47.843Z,14.30
2022-12-11T14:33:54.853Z,16.07
2022-12-11T14:37:00.162Z,14.07
2022-12-11T14:40:08.269Z,14.60
2022-12-11T14:43:16.656Z,13.13
2022-12-11T14:46:23.203Z,13.30
2022-12-11T14:49:31.241Z,12.37
2022-12-11T14:52:38.054Z,14.33
2022-12-11T14:55:42.247Z,12.67
2022-12-11T14:58:50.833Z,12.37
2022-12-11T15:02:02.627Z,12.50
2022-12-11T15:05:15.122Z,11.40
2022-12-11T15:08:25.001Z,11.83
2022-12-11T15:11:33.184Z,12.00
2022-12-11T15:14:37.690Z,11.00
2022-12-11T15:17:41.591Z,11.53
2022-12-11T15:20:44.677Z,11.13
2022-12-11T15:23:53.524Z,9.93
2022-12-11T15:26:59.883Z,10.37
2022-12-11T15:30:15.931Z,8.47
2022-12-11T15:33:22.374Z,7.67
2022-12-11T15:36:27.814Z,6.30
2022-12-11T15:39:30.882Z,4.00
2022-12-11T15:42:39.133Z,3.90
2022-12-11T15:45:44.336Z,2.53
2022-12-11T15:48:48.989Z,2.43
2022-12-11T15:51:52.871Z,3.20
2022-12-11T15:54:55.936Z,3.40
2022-12-11T15:58:01.866Z,3.20
2022-12-11T16:01:06.485Z,2.33
2022-12-11T16:04:09.528Z,2.13
2022-12-11T16:07:18.654Z,2.57
2022-12-11T16:10:23.345Z,3.87
2022-12-11T16:13:26.427Z,2.60
2022-12-11T16:16:31.315Z,2.40
2022-12-11T16:19:34.623Z,2.97
2022-12-11T16:22:38.240Z,1.77
2022-12-11T16:25:43.458Z,2.10
2022-12-11T16:28:46.532Z,2.07
2022-12-11T16:31:51.059Z,2.50
2022-12-11T16:34:54.201Z,2.10
2022-12-11T16:37:57.728Z,1.93
2022-12-11T16:41:02.006Z,1.53
2022-12-11T16:44:05.550Z,2.20
2022-12-11T16:47:09.957Z,2.00
2022-12-11T16:50:15.279Z,1.50
2022-12-11T16:53:18.379Z,2.23
2022-12-11T16:56:21.427Z,1.63
2022-12-11T16:59:24.526Z,2.00
2022-12-11T17:02:29.309Z,16.13
2022-12-11T17:05:32.279Z,18.67
2022-12-11T17:08:35.305Z,22.33
2022-12-11T17:11:38.395Z,24.63
2022-12-11T17:14:41.399Z,27.97
2022-12-11T17:17:45.831Z,44.67
2022-12-11T17:20:48.933Z,41.53
2022-12-11T17:23:52.532Z,41.73
2022-12-11T17:26:56.401Z,43.40
2022-12-11T17:29:59.431Z,45.87
2022-12-11T17:33:04.598Z,43.83
2022-12-11T17:36:08.963Z,44.63
2022-12-11T17:39:11.988Z,42.47
2022-12-11T17:42:15.052Z,42.17
2022-12-11T17:45:18.247Z,41.07
2022-12-11T17:48:23.172Z,38.80
2022-12-11T17:51:26.130Z,36.27
2022-12-11T17:54:29.234Z,36.00
2022-12-11T17:57:32.551Z,32.40
2022-12-11T18:00:36.280Z,34.60
2022-12-11T18:03:41.335Z,38.80
2022-12-11T18:06:45.695Z,28.93
2022-12-11T18:09:49.006Z,15.87
2022-12-11T18:12:52.031Z,12.30
2022-12-11T18:16:01.902Z,6.93
2022-12-11T18:19:08.485Z,6.33
2022-12-11T18:22:11.515Z,4.60
2022-12-11T18:25:14.787Z,3.00
2022-12-11T18:28:18.428Z,2.97
2022-12-11T18:31:22.940Z,4.43
2022-12-11T18:34:27.461Z,2.20
2022-12-11T18:37:31.410Z,2.93
2022-12-11T18:40:34.565Z,2.27
2022-12-11T18:43:38.240Z,2.17
2022-12-11T18:46:41.373Z,2.13
2022-12-11T18:49:45.951Z,2.50
2022-12-11T18:52:48.968Z,2.07
2022-12-11T18:55:57.123Z,1.90
2022-12-11T18:59:03.494Z,2.27
2022-12-11T19:02:06.612Z,2.10
2022-12-11T19:05:11.801Z,2.10
2022-12-11T19:08:16.479Z,4.10
2022-12-11T19:11:22.939Z,2.70
2022-12-11T19:14:26.050Z,2.90
2022-12-11T19:17:29.194Z,3.13
2022-12-11T19:20:56.751Z,3.60
2022-12-11T19:23:59.478Z,3.63
2022-12-11T19:27:02.520Z,2.80
2022-12-11T19:30:06.517Z,3.40
2022-12-11T19:33:09.684Z,3.53
2022-12-11T19:36:16.717Z,3.53
2022-12-11T19:39:20.071Z,3.00
2022-12-11T19:42:23.100Z,4.27
2022-12-11T19:45:27.142Z,3.70
2022-12-11T19:48:30.716Z,3.57
2022-12-11T19:51:38.665Z,3.90
2022-12-11T19:54:41.751Z,4.53
2022-12-11T19:57:44.887Z,3.77
2022-12-11T20:00:48.081Z,3.50
2022-12-11T20:03:51.256Z,3.70
2022-12-11T20:06:55.662Z,3.27
2022-12-11T20:10:00.266Z,4.17
2022-12-11T20:13:03.341Z,5.80
2022-12-11T20:16:07.562Z,7.40
2022-12-11T20:19:10.633Z,7.97
2022-12-11T20:22:15.195Z,7.50
2022-12-11T20:25:18.289Z,7.37
2022-12-11T20:28:22.193Z,7.67
2022-12-11T20:31:27.461Z,7.23
2022-12-11T20:34:30.516Z,6.70
2022-12-11T20:37:35.791Z,6.40
2022-12-11T20:40:39.066Z,6.30
2022-12-11T20:43:42.354Z,6.40
2022-12-11T20:46:45.423Z,6.53
2022-12-11T20:49:49.442Z,6.10
2022-12-11T20:52:53.902Z,6.20
2022-12-11T20:55:56.984Z,5.73
2022-12-11T20:59:00.941Z,5.87
2022-12-11T21:02:05.146Z,6.53
2022-12-11T21:05:08.887Z,7.27
2022-12-11T21:08:13.895Z,8.70
2022-12-11T21:11:17.429Z,8.53
2022-12-11T21:14:21.304Z,9.40
2022-12-11T21:17:24.404Z,10.13
2022-12-11T21:20:27.559Z,10.30
2022-12-11T21:23:32.029Z,10.20
2022-12-11T21:26:35.142Z,10.10
2022-12-11T21:29:38.745Z,10.00
2022-12-11T21:32:42.342Z,9.33
2022-12-11T21:35:45.359Z,9.60
2022-12-11T21:38:50.199Z,9.73
2022-12-11T21:41:53.362Z,8.57
2022-12-11T21:45:37.584Z,10.63
2022-12-11T21:48:19.374Z,9.27
2022-12-11T21:51:24.538Z,10.23
2022-12-11T21:54:28.958Z,10.47
2022-12-11T21:57:31.998Z,11.37
2022-12-11T22:00:36.972Z,11.80
2022-12-11T22:03:40.048Z,12.50
2022-12-11T22:06:43.674Z,13.30
2022-12-11T22:09:48.138Z,12.70
2022-12-11T22:12:51.095Z,13.57
2022-12-11T22:15:54.224Z,13.60
2022-12-11T22:18:57.270Z,13.87
2022-12-11T22:22:00.245Z,15.27
2022-12-11T22:25:07.104Z,13.87
2022-12-11T22:28:10.117Z,14.10
2022-12-11T22:31:13.789Z,14.73
2022-12-11T22:34:16.853Z,14.73
2022-12-11T22:37:19.858Z,15.90
2022-12-11T22:40:24.492Z,15.67
2022-12-11T22:43:27.527Z,15.30
2022-12-11T22:46:31.901Z,15.80
2022-12-11T22:49:34.938Z,16.00
2022-12-11T22:52:37.948Z,14.30
2022-12-11T22:55:42.331Z,15.33
2022-12-11T22:58:45.410Z,15.80
2022-12-11T23:01:48.764Z,15.10
2022-12-11T23:04:51.793Z,15.80
2022-12-11T23:07:54.980Z,15.97
2022-12-11T23:10:59.565Z,15.57
2022-12-11T23:14:03.112Z,16.00
2022-12-11T23:17:06.218Z,15.27
2022-12-11T23:20:10.937Z,14.60
2022-12-11T23:23:14.388Z,15.40
2022-12-11T23:26:20.520Z,15.33
2022-12-11T23:29:23.574Z,15.93
2022-12-11T23:32:26.650Z,14.83
2022-12-11T23:35:29.665Z,15.93
2022-12-11T23:38:33.013Z,14.60
2022-12-11T23:41:37.812Z,14.50
2022-12-11T23:44:40.837Z,14.60
2022-12-11T23:47:43.942Z,13.50
2022-12-11T23:50:48.137Z,14.70
2022-12-11T23:53:51.911Z,14.20
2022-12-11T23:56:56.393Z,13.53
2022-12-11T23:59:59.397Z,13.10
